Time;durP1;ratioP1;P1;durP2;ratioP2;P2;SDS_P1;SDS_P2;PMS_P1;PMS_P2;Temp;Humidity;BMP_temperature;BMP_pressure;BME280_temperature;BME280_humidity;BME280_pressure;Samples;Min_cycle;Max_cycle;Signal;HPM_P1;HPM_P2
2021/07/15 00:02:17;;;;;;;1.45;0.50;;;16.80;99.90;;;;;;5038296;28;20067;-65
2021/07/15 00:04:43;;;;;;;2.35;0.73;;;16.70;99.90;;;;;;5037739;28;20442;-67
2021/07/15 00:07:09;;;;;;;3.80;0.65;;;16.80;99.90;;;;;;5056779;28;20082;-67
2021/07/15 00:09:37;;;;;;;2.85;0.40;;;16.80;99.90;;;;;;5037769;28;20432;-66
2021/07/15 00:12:06;;;;;;;2.40;0.50;;;16.80;99.90;;;;;;5056148;28;20112;-66
2021/07/15 00:14:32;;;;;;;3.20;0.40;;;16.80;99.90;;;;;;5055336;28;20021;-66
2021/07/15 00:16:58;;;;;;;1.38;0.43;;;16.90;99.90;;;;;;5038396;28;20102;-65
2021/07/15 00:19:26;;;;;;;0.57;0.50;;;16.90;99.90;;;;;;5038330;28;20025;-67
2021/07/15 00:21:52;;;;;;;0.50;0.50;;;16.90;99.90;;;;;;5037964;28;20028;-65
2021/07/15 00:24:18;;;;;;;0.85;0.60;;;16.90;99.90;;;;;;5038341;28;20418;-66
2021/07/15 00:26:45;;;;;;;2.22;0.50;;;16.90;99.90;;;;;;5055902;28;20028;-67
2021/07/15 00:29:11;;;;;;;1.60;0.40;;;16.80;99.90;;;;;;5038361;28;20459;-67
2021/07/15 00:31:38;;;;;;;2.17;0.90;;;16.90;99.90;;;;;;5037741;28;20104;-66
2021/07/15 00:34:03;;;;;;;0.50;0.50;;;16.90;99.90;;;;;;5038986;28;20124;-66
2021/07/15 00:36:29;;;;;;;1.95;0.75;;;16.90;99.90;;;;;;5058981;28;20052;-68
2021/07/15 00:38:55;;;;;;;1.27;0.73;;;16.90;99.90;;;;;;5059686;28;20045;-69
2021/07/15 00:41:21;;;;;;;0.20;0.20;;;16.90;99.90;;;;;;5042040;28;20466;-68
2021/07/15 00:43:46;;;;;;;0.98;0.75;;;16.90;99.90;;;;;;5040719;28;20029;-65
2021/07/15 00:46:12;;;;;;;1.52;0.60;;;16.90;99.90;;;;;;5056305;28;20049;-67
2021/07/15 00:48:38;;;;;;;0.77;0.52;;;17.00;99.90;;;;;;5055527;28;20040;-67
2021/07/15 00:51:06;;;;;;;0.50;0.40;;;17.00;99.90;;;;;;5058927;28;20389;-68
2021/07/15 00:53:32;;;;;;;1.65;0.30;;;16.90;99.90;;;;;;5059167;28;20025;-73
2021/07/15 00:55:58;;;;;;;1.05;0.45;;;16.90;99.90;;;;;;5058150;28;20064;-67
2021/07/15 00:58:24;;;;;;;3.30;0.55;;;16.90;99.90;;;;;;5038820;28;20060;-67
2021/07/15 01:00:50;;;;;;;3.13;0.43;;;17.00;99.90;;;;;;5055460;28;20514;-65
2021/07/15 01:03:17;;;;;;;0.85;0.40;;;17.00;99.90;;;;;;5037504;28;20117;-68
2021/07/15 01:05:46;;;;;;;0.32;0.32;;;16.90;99.90;;;;;;5054506;28;20447;-66
2021/07/15 01:08:12;;;;;;;1.65;0.35;;;17.10;99.90;;;;;;5036927;28;20382;-67
2021/07/15 01:10:42;;;;;;;2.15;0.50;;;17.10;99.90;;;;;;5036879;28;20374;-66
2021/07/15 01:13:25;;;;;;;0.45;0.30;;;17.10;99.90;;;;;;5054942;28;20119;-66
2021/07/15 01:15:55;;;;;;;0.95;0.47;;;17.00;99.90;;;;;;5054309;28;20100;-65
2021/07/15 01:18:24;;;;;;;0.75;0.40;;;17.00;99.90;;;;;;5054662;28;20029;-67
2021/07/15 01:21:14;;;;;;;1.95;0.40;;;17.10;99.90;;;;;;5036382;28;20032;-67
2021/07/15 01:24:16;;;;;;;1.27;0.30;;;17.10;99.90;;;;;;5054315;28;20036;-66
2021/07/15 01:26:53;;;;;;;1.25;0.40;;;17.10;99.90;;;;;;5053941;28;20061;-65
2021/07/15 01:29:44;;;;;;;2.35;0.43;;;17.10;99.90;;;;;;5054680;28;20104;-66
2021/07/15 01:32:13;;;;;;;0.85;0.17;;;17.10;99.90;;;;;;5036440;28;20159;-66
2021/07/15 01:34:41;;;;;;;0.65;0.20;;;17.10;99.90;;;;;;5053279;28;20118;-66
2021/07/15 01:37:08;;;;;;;1.20;0.20;;;17.10;99.90;;;;;;5054388;28;20041;-66
2021/07/15 01:39:38;;;;;;;2.35;0.17;;;17.10;99.90;;;;;;5054126;28;20032;-65
2021/07/15 01:42:10;;;;;;;1.85;0.40;;;17.00;99.90;;;;;;5053932;28;20048;-65
2021/07/15 01:44:37;;;;;;;1.65;0.38;;;17.10;99.90;;;;;;5053604;28;20486;-67
2021/07/15 01:47:03;;;;;;;1.75;0.30;;;17.10;99.90;;;;;;5054342;28;20036;-65
2021/07/15 01:49:30;;;;;;;0.40;0.20;;;17.10;99.90;;;;;;5054308;28;20032;-66
2021/07/15 01:51:57;;;;;;;1.17;0.50;;;17.10;99.90;;;;;;5054608;28;20029;-65
2021/07/15 01:54:24;;;;;;;1.95;0.55;;;17.10;99.90;;;;;;5054997;28;20033;-65
2021/07/15 01:56:50;;;;;;;0.73;0.30;;;17.10;99.90;;;;;;5054132;28;20033;-66
2021/07/15 01:59:20;;;;;;;1.15;0.25;;;17.10;99.90;;;;;;5054406;28;20028;-65
2021/07/15 02:01:49;;;;;;;2.58;0.40;;;17.10;99.90;;;;;;5058604;28;20087;-69
2021/07/15 02:04:14;;;;;;;0.60;0.30;;;17.00;99.90;;;;;;5057753;28;20017;-67
2021/07/15 02:06:42;;;;;;;2.72;0.40;;;17.00;99.90;;;;;;5057831;28;20036;-65
2021/07/15 02:09:11;;;;;;;1.02;0.50;;;17.00;99.90;;;;;;5054127;28;20044;-66
2021/07/15 02:11:39;;;;;;;3.63;0.47;;;17.00;99.90;;;;;;5053529;28;20044;-67
2021/07/15 02:14:09;;;;;;;1.40;0.43;;;17.00;99.90;;;;;;5035854;28;20025;-65
2021/07/15 02:16:37;;;;;;;2.88;0.60;;;17.10;99.90;;;;;;5035433;28;20031;-66
2021/07/15 02:19:04;;;;;;;2.25;0.60;;;17.00;99.90;;;;;;5053496;28;20030;-65
2021/07/15 02:21:33;;;;;;;0.43;0.38;;;17.00;99.90;;;;;;5052856;28;20025;-65
2021/07/15 02:24:00;;;;;;;2.83;1.38;;;17.00;99.90;;;;;;5034842;28;20378;-66
2021/07/15 02:26:27;;;;;;;0.90;0.60;;;17.00;99.90;;;;;;5053039;28;20041;-66
2021/07/15 02:28:54;;;;;;;1.55;0.52;;;16.90;99.90;;;;;;5052770;28;20417;-67
2021/07/15 02:31:27;;;;;;;0.90;0.60;;;16.80;99.90;;;;;;5035715;28;20111;-66
2021/07/15 02:33:57;;;;;;;1.02;0.60;;;16.80;99.90;;;;;;5052428;28;20451;-66
2021/07/15 02:36:25;;;;;;;0.85;0.65;;;16.80;99.90;;;;;;5053305;28;20083;-65
2021/07/15 02:38:53;;;;;;;0.90;0.90;;;16.80;99.90;;;;;;5052272;28;20043;-64
2021/07/15 02:41:19;;;;;;;0.73;0.73;;;16.90;99.90;;;;;;5053768;28;20033;-69
2021/07/15 02:43:47;;;;;;;1.27;1.17;;;16.90;99.90;;;;;;5035083;28;20083;-66
2021/07/15 02:46:13;;;;;;;4.70;0.90;;;16.90;99.90;;;;;;5054325;28;20045;-66
2021/07/15 02:48:39;;;;;;;1.70;0.80;;;16.80;99.90;;;;;;5055344;28;20024;-65
2021/07/15 02:51:05;;;;;;;1.25;1.00;;;16.90;99.90;;;;;;5038697;28;20487;-71
2021/07/15 02:53:30;;;;;;;1.88;1.08;;;16.80;99.90;;;;;;5055228;28;20369;-68
2021/07/15 02:56:26;;;;;;;3.00;1.38;;;16.80;99.90;;;;;;5052331;28;20032;-65
2021/07/15 02:59:03;;;;;;;2.22;1.00;;;16.80;99.90;;;;;;5052199;28;20033;-65
2021/07/15 03:01:36;;;;;;;4.68;1.38;;;16.70;99.90;;;;;;5052783;28;20520;-66
2021/07/15 03:04:14;;;;;;;2.13;1.60;;;16.70;99.90;;;;;;5052827;28;20063;-67
2021/07/15 03:06:43;;;;;;;2.42;1.33;;;16.70;99.90;;;;;;5052177;28;20446;-68
2021/07/15 03:09:28;;;;;;;2.83;1.65;;;16.70;99.90;;;;;;5052906;28;20044;-65
2021/07/15 03:12:08;;;;;;;1.85;1.75;;;16.70;99.90;;;;;;5052117;28;20133;-66
2021/07/15 03:14:38;;;;;;;2.05;1.85;;;16.70;99.90;;;;;;5035100;28;20076;-65
2021/07/15 03:17:10;;;;;;;1.52;1.35;;;16.80;99.90;;;;;;5034942;28;20068;-65
2021/07/15 03:19:38;;;;;;;1.50;1.23;;;16.80;99.90;;;;;;5053607;28;20037;-65
2021/07/15 03:22:07;;;;;;;1.92;1.42;;;16.90;99.90;;;;;;5035626;28;20474;-67
2021/07/15 03:24:37;;;;;;;1.77;1.58;;;16.90;99.90;;;;;;5056088;28;20029;-69
2021/07/15 03:27:04;;;;;;;2.07;1.70;;;17.00;99.90;;;;;;5038689;28;20053;-67
2021/07/15 03:29:35;;;;;;;2.10;1.27;;;16.80;99.90;;;;;;5056117;28;20029;-68
2021/07/15 03:32:04;;;;;;;3.80;1.75;;;16.90;99.90;;;;;;5057495;28;20207;-67
2021/07/15 03:34:31;;;;;;;1.52;1.42;;;17.00;99.90;;;;;;5059784;28;20049;-67
2021/07/15 03:36:57;;;;;;;2.75;1.40;;;16.90;99.90;;;;;;5057470;28;20056;-65
2021/07/15 03:39:24;;;;;;;3.10;1.80;;;17.00;99.90;;;;;;5056326;28;20431;-65
2021/07/15 03:41:51;;;;;;;1.67;1.58;;;17.00;99.90;;;;;;5056125;28;20446;-66
2021/07/15 03:44:18;;;;;;;2.45;1.33;;;17.00;99.90;;;;;;5059219;28;20043;-65
2021/07/15 03:46:45;;;;;;;2.85;1.40;;;17.00;99.90;;;;;;5059809;28;20525;-67
2021/07/15 03:49:16;;;;;;;3.80;1.30;;;17.00;99.90;;;;;;5042806;28;20021;-67
2021/07/15 03:51:44;;;;;;;2.40;1.03;;;17.00;99.90;;;;;;5058215;28;20036;-73
2021/07/15 03:54:10;;;;;;;1.83;1.50;;;17.00;99.90;;;;;;5056255;28;20255;-65
2021/07/15 03:56:38;;;;;;;1.85;1.10;;;17.00;99.90;;;;;;5055915;28;20032;-66
2021/07/15 03:59:05;;;;;;;3.28;1.00;;;17.10;99.90;;;;;;5038437;28;20089;-67
2021/07/15 04:01:32;;;;;;;1.63;1.15;;;17.00;99.90;;;;;;5055916;28;20052;-66
2021/07/15 04:04:00;;;;;;;5.63;1.08;;;17.00;99.90;;;;;;5055286;28;20135;-66
2021/07/15 04:06:28;;;;;;;2.00;0.80;;;17.00;99.90;;;;;;5055533;28;20036;-65
2021/07/15 04:08:55;;;;;;;2.40;1.08;;;17.10;99.90;;;;;;5054856;28;20037;-66
2021/07/15 04:11:23;;;;;;;1.33;0.80;;;17.10;99.90;;;;;;5055760;28;20083;-65
2021/07/15 04:13:51;;;;;;;1.63;0.93;;;17.10;99.90;;;;;;5037425;28;20078;-66
2021/07/15 04:16:33;;;;;;;4.65;0.95;;;17.10;99.90;;;;;;5056199;28;20113;-66
2021/07/15 04:19:02;;;;;;;9.23;0.98;;;17.10;99.90;;;;;;5055013;28;20037;-66
2021/07/15 04:21:28;;;;;;;1.73;0.93;;;17.10;99.90;;;;;;5055553;28;20130;-66
2021/07/15 04:23:55;;;;;;;1.75;0.90;;;17.10;99.90;;;;;;5036922;28;20025;-67
2021/07/15 04:26:23;;;;;;;1.30;0.90;;;17.20;99.90;;;;;;5055012;28;20025;-65
2021/07/15 04:28:49;;;;;;;2.40;1.10;;;17.20;99.90;;;;;;5036265;28;20094;-65
2021/07/15 04:31:56;;;;;;;3.63;1.17;;;17.10;99.90;;;;;;5037130;28;20450;-66
2021/07/15 04:34:26;;;;;;;2.85;1.33;;;17.10;99.90;;;;;;5017287;28;20037;-66
2021/07/15 04:36:53;;;;;;;3.10;1.20;;;17.10;99.90;;;;;;5056304;28;20025;-66
2021/07/15 04:39:20;;;;;;;1.08;0.85;;;17.10;99.90;;;;;;5055090;28;20047;-66
2021/07/15 04:41:46;;;;;;;3.60;0.77;;;17.20;99.90;;;;;;5053928;28;20113;-66
2021/07/15 04:44:13;;;;;;;1.27;0.77;;;17.30;99.90;;;;;;5053608;28;20086;-67
2021/07/15 04:46:39;;;;;;;0.80;0.77;;;17.30;99.90;;;;;;5036569;28;20082;-65
2021/07/15 04:49:08;;;;;;;1.88;0.82;;;17.30;99.90;;;;;;5053327;28;20605;-65
2021/07/15 04:51:39;;;;;;;2.72;0.90;;;17.30;99.90;;;;;;5035826;28;20177;-66
2021/07/15 04:54:05;;;;;;;6.10;1.23;;;17.30;99.90;;;;;;5035471;28;20116;-65
2021/07/15 04:56:32;;;;;;;1.13;0.73;;;17.20;99.90;;;;;;5037179;28;20120;-65
2021/07/15 04:58:59;;;;;;;1.40;0.60;;;17.20;99.90;;;;;;5054420;28;20033;-65
2021/07/15 05:01:26;;;;;;;2.75;0.90;;;17.10;99.90;;;;;;5055880;28;20029;-65
2021/07/15 05:03:52;;;;;;;1.05;0.50;;;17.10;99.90;;;;;;5036802;28;20028;-65
2021/07/15 05:06:19;;;;;;;3.83;0.50;;;17.10;99.90;;;;;;5054727;28;20343;-65
2021/07/15 05:08:44;;;;;;;4.82;0.57;;;17.20;99.90;;;;;;5036255;28;20037;-66
2021/07/15 05:11:12;;;;;;;0.98;0.60;;;17.20;99.90;;;;;;5035569;28;20025;-66
2021/07/15 05:13:38;;;;;;;1.00;0.40;;;17.20;99.90;;;;;;5036310;28;20537;-66
2021/07/15 05:16:05;;;;;;;0.88;0.70;;;17.20;99.90;;;;;;5053491;28;20068;-66
2021/07/15 05:18:31;;;;;;;1.08;0.57;;;17.30;99.90;;;;;;5036466;28;20066;-66
2021/07/15 05:20:57;;;;;;;0.70;0.30;;;17.50;99.90;;;;;;5053174;28;20486;-66
2021/07/15 05:23:23;;;;;;;3.60;0.43;;;17.50;99.90;;;;;;5053653;28;20029;-65
2021/07/15 05:25:51;;;;;;;3.15;0.30;;;17.60;99.90;;;;;;5053159;28;20025;-67
2021/07/15 05:28:17;;;;;;;0.65;0.30;;;17.60;99.90;;;;;;5035467;28;20132;-66
2021/07/15 05:30:43;;;;;;;0.63;0.32;;;17.70;99.90;;;;;;5035178;28;20087;-66
2021/07/15 05:33:09;;;;;;;1.42;0.50;;;17.70;99.90;;;;;;5051943;28;20392;-66
2021/07/15 05:35:35;;;;;;;1.10;0.30;;;17.70;99.90;;;;;;5035107;28;20127;-65
2021/07/15 05:38:04;;;;;;;0.65;0.40;;;17.60;99.90;;;;;;5052069;28;20037;-67
2021/07/15 05:40:30;;;;;;;1.45;0.55;;;17.60;99.90;;;;;;5034410;28;20024;-71
2021/07/15 05:42:55;;;;;;;1.17;0.50;;;17.80;99.90;;;;;;5034156;28;20036;-66
2021/07/15 05:45:21;;;;;;;3.10;0.40;;;17.80;99.90;;;;;;5052260;28;20107;-66
2021/07/15 05:47:47;;;;;;;0.85;0.40;;;18.00;99.90;;;;;;5052396;28;20025;-66
2021/07/15 05:50:12;;;;;;;2.35;0.40;;;17.90;99.90;;;;;;5033844;28;20466;-67
2021/07/15 05:52:38;;;;;;;2.58;0.30;;;18.00;99.90;;;;;;5034112;28;20025;-66
2021/07/15 05:55:04;;;;;;;0.60;0.30;;;18.00;99.90;;;;;;5051459;28;20029;-66
2021/07/15 05:57:32;;;;;;;3.35;0.77;;;18.10;99.90;;;;;;5034397;28;20087;-67
2021/07/15 06:00:04;;;;;;;2.95;0.20;;;18.10;99.90;;;;;;5033853;28;20021;-67
2021/07/15 06:02:30;;;;;;;1.90;0.40;;;18.00;99.90;;;;;;5033497;28;20069;-67
2021/07/15 06:04:55;;;;;;;0.68;0.30;;;17.90;99.90;;;;;;5033389;28;20040;-66
2021/07/15 06:07:21;;;;;;;0.70;0.20;;;18.00;99.90;;;;;;5051323;28;20518;-66
2021/07/15 06:09:47;;;;;;;1.00;0.20;;;18.00;99.90;;;;;;5051419;28;20455;-67
2021/07/15 06:12:13;;;;;;;1.65;0.32;;;18.20;99.90;;;;;;5051087;28;20056;-68
2021/07/15 06:14:38;;;;;;;0.65;0.30;;;18.40;99.90;;;;;;5051975;28;20103;-67
2021/07/15 06:17:04;;;;;;;0.70;0.20;;;18.40;99.90;;;;;;5026425;28;20044;-65
2021/07/15 06:19:30;;;;;;;0.50;0.10;;;18.30;99.90;;;;;;5014032;28;20474;-66
2021/07/15 06:21:56;;;;;;;0.38;0.25;;;18.20;99.90;;;;;;5030924;28;20351;-67
2021/07/15 06:24:22;;;;;;;1.13;0.30;;;18.20;99.90;;;;;;5029688;28;20029;-67
2021/07/15 06:26:48;;;;;;;3.38;0.30;;;18.40;99.90;;;;;;5013748;28;20156;-53
2021/07/15 06:29:14;;;;;;;0.63;0.10;;;19.10;99.90;;;;;;5030522;28;20149;-53
2021/07/15 06:31:40;;;;;;;2.15;0.35;;;19.60;99.90;;;;;;5031360;28;20486;-52
2021/07/15 06:34:06;;;;;;;1.23;0.38;;;20.00;99.90;;;;;;5030984;28;20128;-54
2021/07/15 06:36:33;;;;;;;1.60;0.28;;;20.30;99.90;;;;;;5012430;28;20092;-55
2021/07/15 06:39:00;;;;;;;0.30;0.20;;;20.50;99.90;;;;;;5008738;28;20088;-56
2021/07/15 06:41:26;;;;;;;0.40;0.10;;;20.90;99.90;;;;;;5009721;28;20080;-55
2021/07/15 06:43:52;;;;;;;2.10;0.70;;;20.60;99.90;;;;;;5010155;28;20037;-68
2021/07/15 06:46:20;;;;;;;3.85;3.30;;;20.70;99.90;;;;;;5030039;28;20196;-55
2021/07/15 06:48:46;;;;;;;4.65;2.28;;;21.00;99.90;;;;;;5031398;28;20128;-58
2021/07/15 06:51:12;;;;;;;0.80;0.60;;;21.30;99.90;;;;;;5030541;28;20028;-55
2021/07/15 06:53:38;;;;;;;0.65;0.47;;;21.10;99.90;;;;;;5028553;28;20033;-54
2021/07/15 06:56:04;;;;;;;1.50;0.38;;;21.30;99.90;;;;;;5031095;28;20028;-58
2021/07/15 06:58:29;;;;;;;0.55;0.30;;;21.40;99.90;;;;;;5030833;28;20040;-53
2021/07/15 07:00:58;;;;;;;1.88;0.30;;;21.30;99.90;;;;;;5031884;28;20391;-65
2021/07/15 07:03:24;;;;;;;0.47;0.10;;;21.40;99.90;;;;;;5049884;28;20033;-53
2021/07/15 07:05:51;;;;;;;0.82;0.10;;;21.30;99.90;;;;;;5031017;28;20029;-63
2021/07/15 07:08:16;;;;;;;2.03;0.20;;;21.40;99.90;;;;;;5021357;28;20061;-54
2021/07/15 07:10:43;;;;;;;1.02;0.20;;;21.40;99.90;;;;;;5038414;28;20025;-50
2021/07/15 07:13:08;;;;;;;1.02;0.20;;;21.60;99.90;;;;;;5041637;28;20476;-52
2021/07/15 07:15:34;;;;;;;0.20;0.10;;;21.70;99.90;;;;;;5040586;28;20025;-50
2021/07/15 07:18:00;;;;;;;4.97;0.10;;;21.60;99.90;;;;;;5042896;28;20025;-54
2021/07/15 07:20:25;;;;;;;2.50;0.40;;;21.80;99.90;;;;;;5023238;28;20029;-53
2021/07/15 07:22:51;;;;;;;0.10;0.03;;;21.90;99.90;;;;;;5021958;28;20029;-53
2021/07/15 07:25:18;;;;;;;0.98;0.35;;;21.90;99.90;;;;;;5041722;28;20455;-70
2021/07/15 07:27:44;;;;;;;1.08;0.30;;;21.90;99.90;;;;;;5031875;28;20029;-71
2021/07/15 07:30:13;;;;;;;1.00;0.20;;;21.80;99.90;;;;;;5020355;28;20025;-64
2021/07/15 07:32:39;;;;;;;0.95;0.20;;;21.70;99.90;;;;;;5038267;28;20041;-66
2021/07/15 07:35:05;;;;;;;0.75;0.10;;;21.50;99.90;;;;;;5022109;28;20021;-69
2021/07/15 07:37:31;;;;;;;0.20;0.10;;;20.90;99.90;;;;;;5031909;28;20056;-64
2021/07/15 07:39:57;;;;;;;1.85;0.15;;;20.40;99.90;;;;;;5040562;28;20108;-66
2021/07/15 07:42:24;;;;;;;0.90;0.20;;;20.40;99.90;;;;;;5038821;28;20088;-65
2021/07/15 07:44:50;;;;;;;3.83;0.40;;;20.30;99.90;;;;;;5014850;28;20057;-65
2021/07/15 07:47:16;;;;;;;4.47;0.28;;;20.30;99.90;;;;;;5045534;28;20104;-65
2021/07/15 07:49:41;;;;;;;2.67;0.40;;;20.30;99.90;;;;;;5030244;28;20033;-67
2021/07/15 07:52:07;;;;;;;4.57;0.13;;;20.20;99.90;;;;;;5022310;28;20052;-65
2021/07/15 07:54:33;;;;;;;0.52;0.10;;;20.00;99.90;;;;;;5045676;28;20441;-65
2021/07/15 07:56:59;;;;;;;3.25;0.93;;;20.10;99.90;;;;;;5050001;28;20107;-70
2021/07/15 07:59:25;;;;;;;2.67;0.28;;;20.30;99.90;;;;;;5041203;28;20029;-67
2021/07/15 08:01:51;;;;;;;2.30;0.30;;;20.30;99.90;;;;;;5013142;28;20098;-67
2021/07/15 08:04:17;;;;;;;1.73;0.82;;;20.40;99.90;;;;;;5011086;28;20239;-68
2021/07/15 08:06:45;;;;;;;2.95;0.77;;;20.60;99.90;;;;;;5030548;28;20124;-69
2021/07/15 08:09:22;;;;;;;1.88;0.20;;;20.80;99.90;;;;;;5048945;28;20048;-68
2021/07/15 08:11:49;;;;;;;4.47;0.73;;;21.00;99.90;;;;;;5031818;28;20091;-66
2021/07/15 08:14:15;;;;;;;1.02;0.22;;;21.30;99.90;;;;;;5049348;28;20026;-67
2021/07/15 08:16:41;;;;;;;3.85;0.35;;;21.50;99.90;;;;;;5049382;28;20036;-69
2021/07/15 08:19:06;;;;;;;2.63;0.40;;;21.60;99.90;;;;;;5032810;28;20067;-68
2021/07/15 08:21:32;;;;;;;2.45;0.20;;;21.70;99.90;;;;;;5035246;28;20386;-68
2021/07/15 08:23:58;;;;;;;1.33;0.40;;;21.50;99.90;;;;;;5053145;28;20033;-67
2021/07/15 08:26:24;;;;;;;0.98;0.30;;;21.10;99.90;;;;;;5035588;28;20037;-68
2021/07/15 08:28:50;;;;;;;1.15;0.30;;;20.70;99.90;;;;;;5035498;28;20066;-68
2021/07/15 08:31:16;;;;;;;2.17;0.30;;;20.50;99.90;;;;;;5053126;28;20066;-69
2021/07/15 08:33:42;;;;;;;1.58;0.47;;;20.50;99.90;;;;;;5035228;28;20039;-68
2021/07/15 08:36:08;;;;;;;2.72;0.40;;;20.40;99.90;;;;;;5034507;28;20462;-67
2021/07/15 08:38:34;;;;;;;2.83;0.63;;;20.40;99.90;;;;;;5053217;28;20041;-68
2021/07/15 08:40:59;;;;;;;4.78;0.30;;;20.50;99.90;;;;;;5052945;28;20025;-69
2021/07/15 08:43:25;;;;;;;1.65;0.57;;;20.60;99.90;;;;;;5052810;28;20461;-67
2021/07/15 08:45:51;;;;;;;0.52;0.10;;;20.80;99.90;;;;;;5019784;28;20083;-67
2021/07/15 08:48:20;;;;;;;1.00;0.30;;;21.10;99.90;;;;;;5032471;28;20029;-68
2021/07/15 08:50:48;;;;;;;1.02;0.00;;;20.90;99.90;;;;;;5015087;28;20029;-67
2021/07/15 08:53:17;;;;;;;1.75;0.20;;;20.70;99.90;;;;;;5032477;28;20467;-68
2021/07/15 08:58:12;;;;;;;1.13;0.32;;;20.50;99.90;;;;;;5032303;28;20033;-68
2021/07/15 09:00:38;;;;;;;1.55;0.10;;;20.70;99.90;;;;;;5014660;28;20078;-67
2021/07/15 09:03:04;;;;;;;1.92;1.00;;;21.00;99.90;;;;;;5014177;28;20120;-68
2021/07/15 09:05:30;;;;;;;1.00;0.52;;;21.20;99.90;;;;;;5015093;28;20061;-66
2021/07/15 09:07:56;;;;;;;1.25;0.10;;;21.00;99.90;;;;;;5015295;28;20126;-67
2021/07/15 09:10:21;;;;;;;1.33;0.30;;;21.00;99.90;;;;;;5032104;28;20029;-67
2021/07/15 09:12:47;;;;;;;6.05;0.80;;;21.30;99.90;;;;;;5015094;28;20041;-66
2021/07/15 09:15:14;;;;;;;0.98;0.20;;;21.80;99.90;;;;;;5031992;28;20022;-68
2021/07/15 09:17:40;;;;;;;5.43;0.98;;;22.50;99.90;;;;;;5032789;28;20045;-67
2021/07/15 09:20:19;;;;;;;1.55;0.45;;;23.30;99.90;;;;;;5014225;28;20033;-67
2021/07/15 09:23:00;;;;;;;2.13;0.40;;;23.80;99.90;;;;;;5032190;28;20494;-67
2021/07/15 09:25:46;;;;;;;3.25;0.43;;;24.00;99.90;;;;;;5032927;28;20025;-67
2021/07/15 09:28:15;;;;;;;2.05;0.30;;;23.70;99.90;;;;;;5030870;28;20578;-68
2021/07/15 09:30:42;;;;;;;1.35;0.10;;;23.30;99.90;;;;;;5014283;28;20036;-67
2021/07/15 09:33:13;;;;;;;1.13;0.20;;;23.70;99.90;;;;;;5014446;28;20108;-67
2021/07/15 09:35:44;;;;;;;1.55;0.00;;;23.90;99.90;;;;;;5014712;28;20032;-67
2021/07/15 09:38:15;;;;;;;0.70;0.10;;;24.30;99.90;;;;;;5013755;28;20045;-68
2021/07/15 09:40:44;;;;;;;0.30;0.17;;;24.00;99.90;;;;;;5014729;28;20399;-67
2021/07/15 09:43:11;;;;;;;0.57;0.20;;;24.00;99.90;;;;;;5013817;28;20075;-67
2021/07/15 09:45:36;;;;;;;1.48;0.30;;;24.40;99.90;;;;;;5027453;28;20064;-66
2021/07/15 09:48:13;;;;;;;1.20;0.20;;;24.60;99.90;;;;;;5033670;28;20028;-72
2021/07/15 09:50:39;;;;;;;3.60;0.30;;;24.10;99.90;;;;;;5052073;28;20071;-67
2021/07/15 09:53:23;;;;;;;1.48;0.38;;;23.90;99.90;;;;;;5051203;28;20048;-67
2021/07/15 09:56:04;;;;;;;0.50;0.10;;;23.70;99.90;;;;;;5033806;28;20061;-67
2021/07/15 09:58:37;;;;;;;0.60;0.20;;;23.50;99.90;;;;;;5051403;28;20059;-66
2021/07/15 10:01:06;;;;;;;0.95;0.30;;;23.40;99.90;;;;;;5033060;28;20025;-79
2021/07/15 10:03:40;;;;;;;0.70;0.13;;;23.30;99.90;;;;;;5033408;28;20428;-67
2021/07/15 10:06:07;;;;;;;2.22;0.30;;;23.00;99.90;;;;;;5051064;28;20029;-67
2021/07/15 10:08:35;;;;;;;1.48;0.30;;;23.00;99.90;;;;;;5051537;28;20497;-69
2021/07/15 10:11:20;;;;;;;7.65;1.30;;;22.90;99.90;;;;;;5033787;28;20040;-67
2021/07/15 10:14:06;;;;;;;1.95;0.43;;;23.20;99.90;;;;;;5033526;28;20025;-67
2021/07/15 10:16:35;;;;;;;5.00;0.60;;;23.50;99.90;;;;;;5051233;28;20171;-67
2021/07/15 10:19:01;;;;;;;1.67;0.60;;;23.60;99.90;;;;;;5051424;28;20048;-67
2021/07/15 10:21:29;;;;;;;0.68;0.25;;;23.50;99.90;;;;;;5050853;28;20417;-67
2021/07/15 10:23:55;;;;;;;2.63;0.45;;;23.30;99.90;;;;;;5051373;28;20398;-68
2021/07/15 10:26:23;;;;;;;1.13;0.50;;;23.40;99.90;;;;;;5032721;28;20359;-66
2021/07/15 10:28:52;;;;;;;3.15;0.40;;;23.50;99.90;;;;;;5033209;28;20086;-67
2021/07/15 10:31:20;;;;;;;1.85;0.55;;;23.70;99.90;;;;;;5032572;28;20021;-66
2021/07/15 10:33:46;;;;;;;2.38;0.45;;;24.10;99.90;;;;;;5050726;28;20032;-68
2021/07/15 10:36:12;;;;;;;2.50;0.20;;;24.30;99.90;;;;;;5032691;28;20025;-67
2021/07/15 10:38:48;;;;;;;3.63;0.70;;;24.40;99.90;;;;;;5050826;28;20112;-67
2021/07/15 10:41:14;;;;;;;1.83;0.20;;;24.40;99.90;;;;;;5031591;28;20098;-68
2021/07/15 10:43:41;;;;;;;1.27;0.20;;;24.30;99.90;;;;;;5032441;28;20021;-66
2021/07/15 10:46:08;;;;;;;1.45;0.85;;;24.00;99.90;;;;;;5049596;28;20049;-68
2021/07/15 10:48:36;;;;;;;1.60;0.60;;;23.90;99.90;;;;;;5032599;28;20123;-66
2021/07/15 10:51:03;;;;;;;0.60;0.35;;;23.70;99.90;;;;;;5050649;28;20032;-67
2021/07/15 10:53:33;;;;;;;1.13;0.20;;;23.70;99.90;;;;;;5032075;28;20029;-67
2021/07/15 10:55:59;;;;;;;0.85;0.20;;;23.80;99.90;;;;;;5032465;28;20458;-66
2021/07/15 10:58:48;;;;;;;1.88;0.30;;;23.70;99.90;;;;;;5049803;28;20122;-66
2021/07/15 11:01:40;;;;;;;2.97;0.30;;;23.60;99.90;;;;;;5032251;28;20073;-67
2021/07/15 11:04:21;;;;;;;2.22;0.38;;;23.60;99.90;;;;;;5032757;28;20392;-82
2021/07/15 11:06:49;;;;;;;1.00;0.30;;;23.60;99.90;;;;;;5051065;28;20033;-67
2021/07/15 11:09:23;;;;;;;0.95;0.25;;;23.70;99.90;;;;;;5049869;28;20086;-67
2021/07/15 11:11:51;;;;;;;1.83;0.30;;;23.70;99.90;;;;;;5050112;28;20467;-67
2021/07/15 11:14:41;;;;;;;0.80;0.25;;;23.60;99.90;;;;;;5049389;28;20040;-66
2021/07/15 11:17:26;;;;;;;4.25;0.40;;;23.50;99.90;;;;;;5032216;28;20025;-79
2021/07/15 11:19:58;;;;;;;2.28;0.60;;;23.50;99.90;;;;;;5032395;28;20031;-66
2021/07/15 11:22:52;;;;;;;9.20;0.40;;;23.50;99.90;;;;;;5049839;28;20100;-66
2021/07/15 11:25:41;;;;;;;2.00;0.30;;;23.40;99.90;;;;;;5048634;28;20021;-66
2021/07/15 11:28:09;;;;;;;0.47;0.30;;;23.50;99.90;;;;;;5050470;28;20171;-66
2021/07/15 11:30:35;;;;;;;2.83;0.60;;;24.20;99.90;;;;;;5032355;28;20517;-67
2021/07/15 11:33:19;;;;;;;1.65;0.45;;;24.90;99.90;;;;;;5049961;28;20108;-68
2021/07/15 11:36:06;;;;;;;4.55;0.28;;;25.70;99.30;;;;;;5032429;28;20387;-66
2021/07/15 11:38:42;;;;;;;1.13;0.28;;;26.30;97.90;;;;;;5031628;28;20471;-66
2021/07/15 11:41:16;;;;;;;1.27;0.30;;;26.40;97.60;;;;;;5050460;28;20044;-67
2021/07/15 11:43:47;;;;;;;0.63;0.40;;;26.10;97.30;;;;;;5032474;28;20021;-67
2021/07/15 11:46:21;;;;;;;2.22;0.28;;;26.40;97.50;;;;;;5031361;28;20049;-68
2021/07/15 11:49:05;;;;;;;0.88;0.28;;;26.40;97.30;;;;;;5050753;28;20029;-67
2021/07/15 11:51:36;;;;;;;1.27;0.22;;;26.10;97.20;;;;;;5031642;28;20021;-67
2021/07/15 11:54:20;;;;;;;6.00;0.28;;;25.80;96.40;;;;;;5035355;28;20470;-66
2021/07/15 11:56:50;;;;;;;1.05;0.20;;;25.90;97.20;;;;;;5036878;28;20060;-67
2021/07/15 11:59:32;;;;;;;1.90;0.30;;;26.20;97.10;;;;;;5035495;28;20126;-67
2021/07/15 12:02:20;;;;;;;3.08;0.20;;;26.20;96.20;;;;;;5053665;28;20029;-67
2021/07/15 12:05:07;;;;;;;0.30;0.10;;;26.10;95.70;;;;;;5053656;28;20032;-67
2021/07/15 12:07:57;;;;;;;0.75;0.30;;;26.00;95.40;;;;;;5035033;28;20037;-66
2021/07/15 12:10:25;;;;;;;0.95;0.30;;;25.70;96.00;;;;;;5034190;28;20041;-67
2021/07/15 12:12:53;;;;;;;2.05;0.30;;;25.60;96.70;;;;;;5053971;28;20021;-68
2021/07/15 12:15:24;;;;;;;1.13;0.20;;;25.70;97.20;;;;;;5035398;28;20120;-67
2021/07/15 12:17:57;;;;;;;;;;;25.70;97.10;;;;;;5036149;28;20037;-71
2021/07/15 12:20:44;;;;;;;0.68;0.13;;;25.80;96.40;;;;;;5035252;28;19924;-67
2021/07/15 12:23:24;;;;;;;2.58;0.30;;;25.90;95.60;;;;;;5035007;28;20059;-67
2021/07/15 12:25:53;;;;;;;0.20;0.10;;;26.00;95.90;;;;;;5035922;28;20083;-69
2021/07/15 12:28:25;;;;;;;0.63;0.28;;;25.80;95.70;;;;;;5035578;28;20025;-67
2021/07/15 12:31:03;;;;;;;0.50;0.10;;;25.80;95.80;;;;;;5035809;28;20086;-67
2021/07/15 12:33:50;;;;;;;1.33;0.30;;;25.60;96.40;;;;;;5018073;28;20126;-66
2021/07/15 12:36:22;;;;;;;2.97;0.47;;;26.00;96.10;;;;;;5052367;28;20091;-67
2021/07/15 12:38:52;;;;;;;0.35;0.20;;;26.50;95.70;;;;;;5035631;28;20147;-67
2021/07/15 12:41:26;;;;;;;0.52;0.28;;;26.80;94.70;;;;;;5052865;28;20112;-67
2021/07/15 12:44:11;;;;;;;0.90;0.20;;;26.80;95.10;;;;;;5036438;28;20074;-68
2021/07/15 12:46:40;;;;;;;0.13;0.10;;;26.60;94.60;;;;;;5035973;28;20075;-68
2021/07/15 12:49:13;;;;;;;0.73;0.17;;;26.40;94.80;;;;;;5053542;28;20039;-67
2021/07/15 12:51:38;;;;;;;0.43;0.20;;;26.40;94.20;;;;;;5035428;28;20025;-68
2021/07/15 12:54:07;;;;;;;2.30;0.22;;;26.30;94.70;;;;;;5035214;28;20025;-67
2021/07/15 12:56:33;;;;;;;1.15;0.50;;;26.30;95.20;;;;;;5034638;28;20265;-67
2021/07/15 12:59:09;;;;;;;3.75;2.65;;;26.60;94.70;;;;;;5034810;28;20445;-67
2021/07/15 13:01:43;;;;;;;0.40;0.30;;;26.70;94.30;;;;;;5052202;28;20082;-65
2021/07/15 13:04:13;;;;;;;1.67;0.50;;;26.90;93.30;;;;;;5052354;28;20036;-66